Dyess Air Force Base
KDYS : now visible

Airfield :











YOU CAN JOIN US ON...

 
LOGIN :

Register | Disclaimer

   EN    FR    IT 

 









Legend :    VFR   Marginal VFR   IFR   Intensive IFR   Very Intensive IFR
Visi :
Ceiling :
>= 8 km
>= 3000ft
5 to 8 km
1000 to 3000 ft
1500m to 5 km
500 to 1000 ft
800 to 1500m
200 to 500 ft
< 800m
< 200 ft
Symbols :   Thunderstorms  Fog  Heavy snow  Heavy precipitations  Wind > 20 kt






- Airport Elevation : 1789 ft


KDYS - Dyess Air Force Base

CURRENT METAR :
  • 141056Z AUTO 02011KT 10SM FEW013 OVC033 11/06 A3007 RMK AO2 SLP166 T01070059 $

EXPIRED METARs :
  • 140956Z AUTO 02007KT 10SM OVC035 11/06 A3006 RMK AO2 SLP162 T01110058 $
  • 140856Z AUTO 01012KT 10SM OVC037 11/06 A3007 RMK AO2 SLP166 T01120063 50002 $

TAF TAF KDYS
Valid from the 14 at 04:00 until the 15 at 10:00 UTC


140400Z 1404/1510 01006KT 9999 BKN030 QNH3006INS
BECMG 1405/1406 VRB06KT 9999 BKN023 QNH3006INS
TEMPO 1411/1415 8000 BR OVC008
BECMG 1414/1415 04012KT 9999 OVC015 QNH3008INS
TEMPO 1418/1421 4800 -SHRA OVC008
BECMG 1420/1421 36006KT 8000 -SHRA OVC008 520223 QNH2995INS TX14/1417Z TN12/1412Z
KZFW FIR / North America



MET'MAP, your aeronautical weather chart ! - Copyright ORBIFLY December 2007 - Disclaimer

ORBIFLY MET'MAP TEAM :

Programming & Development : Alexandra Zaïnal
Concept & original design : Baudouin d'Aumeries
Assistance for programming : Marc-Olivier Méhu
Technical & hardware support : Manuel Goepfert

Contact : metmap@orbifly.com




SOURCES & CREDITS :

   NOAA       Earth
Advisory